sensor_id;sensor_type;location;lat;lon;timestamp;temperature;humidity
18335;DHT22;9293;49.524;10.964;2022-11-18T00:01:22;8.80;99.90
18335;DHT22;9293;49.524;10.964;2022-11-18T00:03:51;8.80;99.90
18335;DHT22;9293;49.524;10.964;2022-11-18T00:06:21;8.80;99.90
18335;DHT22;9293;49.524;10.964;2022-11-18T00:08:51;8.70;99.90
18335;DHT22;9293;49.524;10.964;2022-11-18T00:11:21;8.80;99.90
18335;DHT22;9293;49.524;10.964;2022-11-18T00:14:22;8.70;99.90
18335;DHT22;9293;49.524;10.964;2022-11-18T00:17:09;8.60;99.90
18335;DHT22;9293;49.524;10.964;2022-11-18T00:19:38;8.70;99.90
18335;DHT22;9293;49.524;10.964;2022-11-18T00:22:10;8.70;99.90
18335;DHT22;9293;49.524;10.964;2022-11-18T00:24:38;8.60;99.90
18335;DHT22;9293;49.524;10.964;2022-11-18T00:27:06;8.60;99.90
18335;DHT22;9293;49.524;10.964;2022-11-18T00:29:34;8.60;99.90
18335;DHT22;9293;49.524;10.964;2022-11-18T00:32:02;8.60;99.90
18335;DHT22;9293;49.524;10.964;2022-11-18T00:34:30;8.60;99.90
18335;DHT22;9293;49.524;10.964;2022-11-18T00:36:58;8.60;99.90
18335;DHT22;9293;49.524;10.964;2022-11-18T00:39:26;8.60;99.90
18335;DHT22;9293;49.524;10.964;2022-11-18T00:41:54;8.60;99.90
18335;DHT22;9293;49.524;10.964;2022-11-18T00:44:41;8.60;99.90
18335;DHT22;9293;49.524;10.964;2022-11-18T00:47:09;8.50;99.90
18335;DHT22;9293;49.524;10.964;2022-11-18T00:49:37;8.50;99.90
18335;DHT22;9293;49.524;10.964;2022-11-18T00:52:05;8.50;99.90
18335;DHT22;9293;49.524;10.964;2022-11-18T00:54:33;8.50;99.90
18335;DHT22;9293;49.524;10.964;2022-11-18T00:57:01;8.50;99.90
18335;DHT22;9293;49.524;10.964;2022-11-18T00:59:31;8.50;99.90
18335;DHT22;9293;49.524;10.964;2022-11-18T01:01:59;8.50;99.90
18335;DHT22;9293;49.524;10.964;2022-11-18T01:04:27;8.50;99.90
18335;DHT22;9293;49.524;10.964;2022-11-18T01:06:55;8.50;99.90
18335;DHT22;9293;49.524;10.964;2022-11-18T01:09:23;8.50;99.90
18335;DHT22;9293;49.524;10.964;2022-11-18T01:11:51;8.50;99.90
18335;DHT22;9293;49.524;10.964;2022-11-18T01:14:38;8.40;99.90
18335;DHT22;9293;49.524;10.964;2022-11-18T01:17:06;8.50;99.90
18335;DHT22;9293;49.524;10.964;2022-11-18T01:19:34;8.50;99.90
18335;DHT22;9293;49.524;10.964;2022-11-18T01:22:02;8.50;99.90
18335;DHT22;9293;49.524;10.964;2022-11-18T01:24:32;8.40;99.90
18335;DHT22;9293;49.524;10.964;2022-11-18T01:27:00;8.40;99.90
18335;DHT22;9293;49.524;10.964;2022-11-18T01:29:29;8.40;99.90
18335;DHT22;9293;49.524;10.964;2022-11-18T01:31:57;8.40;99.90
18335;DHT22;9293;49.524;10.964;2022-11-18T01:34:45;8.40;99.90
18335;DHT22;9293;49.524;10.964;2022-11-18T01:37:16;8.50;99.90
18335;DHT22;9293;49.524;10.964;2022-11-18T01:39:49;8.50;99.90
18335;DHT22;9293;49.524;10.964;2022-11-18T01:42:18;8.40;99.90
18335;DHT22;9293;49.524;10.964;2022-11-18T01:45:18;8.40;99.90
18335;DHT22;9293;49.524;10.964;2022-11-18T01:47:57;8.40;99.90
18335;DHT22;9293;49.524;10.964;2022-11-18T01:50:26;8.40;99.90
18335;DHT22;9293;49.524;10.964;2022-11-18T01:52:59;8.30;99.90
18335;DHT22;9293;49.524;10.964;2022-11-18T01:55:32;8.30;99.90
18335;DHT22;9293;49.524;10.964;2022-11-18T01:58:09;8.20;99.90
18335;DHT22;9293;49.524;10.964;2022-11-18T02:00:39;8.30;99.90
18335;DHT22;9293;49.524;10.964;2022-11-18T02:03:07;8.20;99.90
18335;DHT22;9293;49.524;10.964;2022-11-18T02:05:37;8.20;99.90
18335;DHT22;9293;49.524;10.964;2022-11-18T02:08:07;8.20;99.90
18335;DHT22;9293;49.524;10.964;2022-11-18T02:10:35;8.30;99.90
18335;DHT22;9293;49.524;10.964;2022-11-18T02:13:04;8.30;99.90
18335;DHT22;9293;49.524;10.964;2022-11-18T02:21:38;8.30;99.90
18335;DHT22;9293;49.524;10.964;2022-11-18T02:30:12;8.10;99.90
18335;DHT22;9293;49.524;10.964;2022-11-18T02:33:12;8.10;99.90
18335;DHT22;9293;49.524;10.964;2022-11-18T02:35:47;8.10;99.90
18335;DHT22;9293;49.524;10.964;2022-11-18T02:38:23;8.00;99.90
18335;DHT22;9293;49.524;10.964;2022-11-18T02:41:04;8.00;99.90
18335;DHT22;9293;49.524;10.964;2022-11-18T02:43:47;7.90;99.90
18335;DHT22;9293;49.524;10.964;2022-11-18T02:46:23;7.80;99.90
18335;DHT22;9293;49.524;10.964;2022-11-18T02:48:52;7.70;99.90
18335;DHT22;9293;49.524;10.964;2022-11-18T02:51:24;7.70;99.90
18335;DHT22;9293;49.524;10.964;2022-11-18T02:53:55;7.60;99.90
18335;DHT22;9293;49.524;10.964;2022-11-18T02:56:26;7.60;99.90
18335;DHT22;9293;49.524;10.964;2022-11-18T02:58:55;7.70;99.90
18335;DHT22;9293;49.524;10.964;2022-11-18T03:01:29;7.60;99.90
18335;DHT22;9293;49.524;10.964;2022-11-18T03:03:57;7.60;99.90
18335;DHT22;9293;49.524;10.964;2022-11-18T03:06:41;7.60;99.90
18335;DHT22;9293;49.524;10.964;2022-11-18T03:09:29;7.60;99.90
18335;DHT22;9293;49.524;10.964;2022-11-18T03:12:16;7.70;99.90
18335;DHT22;9293;49.524;10.964;2022-11-18T03:20:50;7.60;99.90
18335;DHT22;9293;49.524;10.964;2022-11-18T03:23:27;7.60;99.90
18335;DHT22;9293;49.524;10.964;2022-11-18T03:26:11;7.60;99.90
18335;DHT22;9293;49.524;10.964;2022-11-18T03:28:59;7.70;99.90
18335;DHT22;9293;49.524;10.964;2022-11-18T03:31:48;7.70;99.90
18335;DHT22;9293;49.524;10.964;2022-11-18T03:34:40;7.70;99.90
18335;DHT22;9293;49.524;10.964;2022-11-18T03:37:13;7.70;99.90
18335;DHT22;9293;49.524;10.964;2022-11-18T03:39:50;7.80;99.90
18335;DHT22;9293;49.524;10.964;2022-11-18T03:42:26;7.80;99.90
18335;DHT22;9293;49.524;10.964;2022-11-18T03:45:00;7.90;99.90
18335;DHT22;9293;49.524;10.964;2022-11-18T03:47:33;7.90;99.90
18335;DHT22;9293;49.524;10.964;2022-11-18T03:50:25;8.00;99.90
18335;DHT22;9293;49.524;10.964;2022-11-18T03:52:54;8.00;99.90
18335;DHT22;9293;49.524;10.964;2022-11-18T03:55:35;8.00;99.90
18335;DHT22;9293;49.524;10.964;2022-11-18T03:58:19;8.00;99.90
18335;DHT22;9293;49.524;10.964;2022-11-18T04:00:55;8.10;99.90
18335;DHT22;9293;49.524;10.964;2022-11-18T04:03:23;8.00;99.90
18335;DHT22;9293;49.524;10.964;2022-11-18T04:06:02;8.00;99.90
18335;DHT22;9293;49.524;10.964;2022-11-18T04:08:36;8.10;99.90
18335;DHT22;9293;49.524;10.964;2022-11-18T04:11:18;8.10;99.90
18335;DHT22;9293;49.524;10.964;2022-11-18T04:14:13;8.10;99.90
18335;DHT22;9293;49.524;10.964;2022-11-18T04:16:43;8.10;99.90
18335;DHT22;9293;49.524;10.964;2022-11-18T04:19:11;8.10;99.90
18335;DHT22;9293;49.524;10.964;2022-11-18T04:21:39;8.10;99.90
18335;DHT22;9293;49.524;10.964;2022-11-18T04:24:07;8.10;99.90
18335;DHT22;9293;49.524;10.964;2022-11-18T04:26:35;8.10;99.90
18335;DHT22;9293;49.524;10.964;2022-11-18T04:29:03;8.20;99.90
18335;DHT22;9293;49.524;10.964;2022-11-18T04:31:39;8.10;99.90
18335;DHT22;9293;49.524;10.964;2022-11-18T04:34:07;8.10;99.90
18335;DHT22;9293;49.524;10.964;2022-11-18T04:36:35;8.10;99.90
18335;DHT22;9293;49.524;10.964;2022-11-18T04:39:03;8.20;99.90
18335;DHT22;9293;49.524;10.964;2022-11-18T04:41:31;8.10;99.90
18335;DHT22;9293;49.524;10.964;2022-11-18T04:44:18;8.20;99.90
18335;DHT22;9293;49.524;10.964;2022-11-18T04:46:46;8.10;99.90
18335;DHT22;9293;49.524;10.964;2022-11-18T04:49:14;8.20;99.90
18335;DHT22;9293;49.524;10.964;2022-11-18T04:51:44;8.10;99.90
18335;DHT22;9293;49.524;10.964;2022-11-18T04:54:13;8.20;99.90
18335;DHT22;9293;49.524;10.964;2022-11-18T04:56:41;8.20;99.90
18335;DHT22;9293;49.524;10.964;2022-11-18T04:59:17;8.10;99.90
18335;DHT22;9293;49.524;10.964;2022-11-18T05:01:51;8.10;99.90
18335;DHT22;9293;49.524;10.964;2022-11-18T05:04:24;8.10;99.90
18335;DHT22;9293;49.524;10.964;2022-11-18T05:06:52;8.10;99.90
18335;DHT22;9293;49.524;10.964;2022-11-18T05:09:21;8.10;99.90
18335;DHT22;9293;49.524;10.964;2022-11-18T05:11:57;8.10;99.90
18335;DHT22;9293;49.524;10.964;2022-11-18T05:14:43;8.10;99.90
18335;DHT22;9293;49.524;10.964;2022-11-18T05:17:17;8.10;99.90
18335;DHT22;9293;49.524;10.964;2022-11-18T05:19:45;8.10;99.90
18335;DHT22;9293;49.524;10.964;2022-11-18T05:22:14;8.10;99.90
18335;DHT22;9293;49.524;10.964;2022-11-18T05:24:42;8.10;99.90
18335;DHT22;9293;49.524;10.964;2022-11-18T05:27:11;8.10;99.90
18335;DHT22;9293;49.524;10.964;2022-11-18T05:29:40;8.20;99.90
18335;DHT22;9293;49.524;10.964;2022-11-18T05:32:08;8.20;99.90
18335;DHT22;9293;49.524;10.964;2022-11-18T05:34:36;8.20;99.90
18335;DHT22;9293;49.524;10.964;2022-11-18T05:37:04;8.20;99.90
18335;DHT22;9293;49.524;10.964;2022-11-18T05:39:32;8.20;99.90
18335;DHT22;9293;49.524;10.964;2022-11-18T05:42:00;8.20;99.90
18335;DHT22;9293;49.524;10.964;2022-11-18T05:44:47;8.20;99.90
18335;DHT22;9293;49.524;10.964;2022-11-18T05:47:26;8.20;99.90
18335;DHT22;9293;49.524;10.964;2022-11-18T05:49:54;8.20;99.90
18335;DHT22;9293;49.524;10.964;2022-11-18T05:52:22;8.20;99.90
18335;DHT22;9293;49.524;10.964;2022-11-18T05:54:53;8.20;99.90
18335;DHT22;9293;49.524;10.964;2022-11-18T05:57:21;8.20;99.90
18335;DHT22;9293;49.524;10.964;2022-11-18T05:59:49;8.30;99.90
18335;DHT22;9293;49.524;10.964;2022-11-18T06:02:20;8.30;99.90
18335;DHT22;9293;49.524;10.964;2022-11-18T06:04:58;8.30;99.90
18335;DHT22;9293;49.524;10.964;2022-11-18T06:07:40;8.30;99.90
18335;DHT22;9293;49.524;10.964;2022-11-18T06:10:14;8.20;99.90
18335;DHT22;9293;49.524;10.964;2022-11-18T06:12:47;8.20;99.90
18335;DHT22;9293;49.524;10.964;2022-11-18T06:18:12;8.20;99.90
18335;DHT22;9293;49.524;10.964;2022-11-18T06:20:43;8.20;99.90
18335;DHT22;9293;49.524;10.964;2022-11-18T06:23:12;8.20;99.90
18335;DHT22;9293;49.524;10.964;2022-11-18T06:25:41;8.20;99.90
18335;DHT22;9293;49.524;10.964;2022-11-18T06:28:11;8.20;99.90
18335;DHT22;9293;49.524;10.964;2022-11-18T06:30:41;8.20;99.90
18335;DHT22;9293;49.524;10.964;2022-11-18T06:33:12;8.20;99.90
18335;DHT22;9293;49.524;10.964;2022-11-18T06:35:44;8.20;99.90
18335;DHT22;9293;49.524;10.964;2022-11-18T06:38:12;8.20;99.90
18335;DHT22;9293;49.524;10.964;2022-11-18T06:40:40;8.10;99.90
18335;DHT22;9293;49.524;10.964;2022-11-18T06:43:11;8.10;99.90
18335;DHT22;9293;49.524;10.964;2022-11-18T06:46:08;8.10;99.90
18335;DHT22;9293;49.524;10.964;2022-11-18T06:48:56;8.10;99.90
18335;DHT22;9293;49.524;10.964;2022-11-18T06:51:24;8.10;99.90
18335;DHT22;9293;49.524;10.964;2022-11-18T06:53:52;8.00;99.90
18335;DHT22;9293;49.524;10.964;2022-11-18T06:56:22;8.10;99.90
18335;DHT22;9293;49.524;10.964;2022-11-18T06:58:54;8.00;99.90
18335;DHT22;9293;49.524;10.964;2022-11-18T07:01:24;8.00;99.90
18335;DHT22;9293;49.524;10.964;2022-11-18T07:03:53;8.00;99.90
18335;DHT22;9293;49.524;10.964;2022-11-18T07:06:23;7.90;99.90
18335;DHT22;9293;49.524;10.964;2022-11-18T07:08:52;7.90;99.90
18335;DHT22;9293;49.524;10.964;2022-11-18T07:11:22;8.00;99.90
18335;DHT22;9293;49.524;10.964;2022-11-18T07:13:51;8.00;99.90
18335;DHT22;9293;49.524;10.964;2022-11-18T07:16:24;8.10;99.90
18335;DHT22;9293;49.524;10.964;2022-11-18T07:18:53;8.10;99.90
18335;DHT22;9293;49.524;10.964;2022-11-18T07:21:26;8.10;99.90
18335;DHT22;9293;49.524;10.964;2022-11-18T07:24:08;8.00;99.90
18335;DHT22;9293;49.524;10.964;2022-11-18T07:26:38;8.00;99.90
18335;DHT22;9293;49.524;10.964;2022-11-18T07:29:06;8.10;99.90
18335;DHT22;9293;49.524;10.964;2022-11-18T07:31:36;8.10;99.90
18335;DHT22;9293;49.524;10.964;2022-11-18T07:34:06;8.10;99.90
18335;DHT22;9293;49.524;10.964;2022-11-18T07:36:34;8.10;99.90
18335;DHT22;9293;49.524;10.964;2022-11-18T07:39:04;8.20;99.90
18335;DHT22;9293;49.524;10.964;2022-11-18T07:41:33;8.10;99.90
18335;DHT22;9293;49.524;10.964;2022-11-18T07:44:02;8.20;99.90
18335;DHT22;9293;49.524;10.964;2022-11-18T07:46:33;8.20;99.90
18335;DHT22;9293;49.524;10.964;2022-11-18T07:49:04;8.30;99.90
18335;DHT22;9293;49.524;10.964;2022-11-18T07:51:35;8.30;99.90
18335;DHT22;9293;49.524;10.964;2022-11-18T07:54:11;8.30;99.90
18335;DHT22;9293;49.524;10.964;2022-11-18T07:56:40;8.30;99.90
18335;DHT22;9293;49.524;10.964;2022-11-18T07:59:08;8.30;99.90
18335;DHT22;9293;49.524;10.964;2022-11-18T08:01:36;8.40;99.90
18335;DHT22;9293;49.524;10.964;2022-11-18T08:04:06;8.30;99.90
18335;DHT22;9293;49.524;10.964;2022-11-18T08:06:35;8.30;99.90
18335;DHT22;9293;49.524;10.964;2022-11-18T08:09:04;8.30;99.90
18335;DHT22;9293;49.524;10.964;2022-11-18T08:11:33;8.30;99.90
18335;DHT22;9293;49.524;10.964;2022-11-18T08:14:01;8.30;99.90
18335;DHT22;9293;49.524;10.964;2022-11-18T08:16:29;8.30;99.90
18335;DHT22;9293;49.524;10.964;2022-11-18T08:18:58;8.30;99.90
18335;DHT22;9293;49.524;10.964;2022-11-18T08:21:33;8.30;99.90
18335;DHT22;9293;49.524;10.964;2022-11-18T08:24:03;8.30;99.90
18335;DHT22;9293;49.524;10.964;2022-11-18T08:26:31;8.40;99.90
18335;DHT22;9293;49.524;10.964;2022-11-18T08:28:59;8.40;99.90
18335;DHT22;9293;49.524;10.964;2022-11-18T08:31:28;8.40;99.90
18335;DHT22;9293;49.524;10.964;2022-11-18T08:34:02;8.40;99.90
18335;DHT22;9293;49.524;10.964;2022-11-18T08:36:33;8.30;99.90
18335;DHT22;9293;49.524;10.964;2022-11-18T08:39:04;8.30;99.90
18335;DHT22;9293;49.524;10.964;2022-11-18T08:41:34;8.30;99.90
18335;DHT22;9293;49.524;10.964;2022-11-18T08:44:03;8.30;99.90
18335;DHT22;9293;49.524;10.964;2022-11-18T08:46:32;8.30;99.90
18335;DHT22;9293;49.524;10.964;2022-11-18T08:49:00;8.30;99.90
18335;DHT22;9293;49.524;10.964;2022-11-18T08:51:28;8.30;99.90
18335;DHT22;9293;49.524;10.964;2022-11-18T08:53:56;8.30;99.90
18335;DHT22;9293;49.524;10.964;2022-11-18T08:56:24;8.30;99.90
18335;DHT22;9293;49.524;10.964;2022-11-18T08:58:52;8.30;99.90
18335;DHT22;9293;49.524;10.964;2022-11-18T09:01:21;8.30;99.90
18335;DHT22;9293;49.524;10.964;2022-11-18T09:03:49;8.30;99.90
18335;DHT22;9293;49.524;10.964;2022-11-18T09:06:19;8.20;99.90
18335;DHT22;9293;49.524;10.964;2022-11-18T09:08:48;8.20;99.90
18335;DHT22;9293;49.524;10.964;2022-11-18T09:11:18;8.10;99.90
18335;DHT22;9293;49.524;10.964;2022-11-18T09:13:54;8.10;99.90
18335;DHT22;9293;49.524;10.964;2022-11-18T09:16:43;8.10;99.90
18335;DHT22;9293;49.524;10.964;2022-11-18T09:19:13;8.30;99.90
18335;DHT22;9293;49.524;10.964;2022-11-18T09:22:03;8.30;99.90
18335;DHT22;9293;49.524;10.964;2022-11-18T09:24:31;8.30;99.90
18335;DHT22;9293;49.524;10.964;2022-11-18T09:27:04;8.20;99.90
18335;DHT22;9293;49.524;10.964;2022-11-18T09:29:39;8.30;99.90
18335;DHT22;9293;49.524;10.964;2022-11-18T09:32:07;8.20;99.90
18335;DHT22;9293;49.524;10.964;2022-11-18T09:34:35;8.20;99.90
18335;DHT22;9293;49.524;10.964;2022-11-18T09:37:04;8.20;99.90
18335;DHT22;9293;49.524;10.964;2022-11-18T09:39:34;8.20;99.90
18335;DHT22;9293;49.524;10.964;2022-11-18T09:45:17;8.10;99.90
18335;DHT22;9293;49.524;10.964;2022-11-18T09:47:50;8.10;99.90
18335;DHT22;9293;49.524;10.964;2022-11-18T09:50:22;8.10;99.90
18335;DHT22;9293;49.524;10.964;2022-11-18T09:53:17;8.10;99.90
18335;DHT22;9293;49.524;10.964;2022-11-18T09:55:46;8.10;99.90
18335;DHT22;9293;49.524;10.964;2022-11-18T09:58:33;8.10;99.90
18335;DHT22;9293;49.524;10.964;2022-11-18T10:12:02;8.10;99.90
18335;DHT22;9293;49.524;10.964;2022-11-18T10:25:30;8.40;99.90
18335;DHT22;9293;49.524;10.964;2022-11-18T10:28:12;8.40;99.90
18335;DHT22;9293;49.524;10.964;2022-11-18T10:30:41;8.40;99.90
18335;DHT22;9293;49.524;10.964;2022-11-18T10:35:51;8.30;99.90
18335;DHT22;9293;49.524;10.964;2022-11-18T10:38:34;8.30;99.90
18335;DHT22;9293;49.524;10.964;2022-11-18T10:41:14;8.30;99.90
18335;DHT22;9293;49.524;10.964;2022-11-18T10:43:55;8.30;99.90
18335;DHT22;9293;49.524;10.964;2022-11-18T10:46:27;8.30;99.90
18335;DHT22;9293;49.524;10.964;2022-11-18T10:51:44;8.40;99.90
18335;DHT22;9293;49.524;10.964;2022-11-18T10:54:20;8.40;99.90
18335;DHT22;9293;49.524;10.964;2022-11-18T10:59:41;8.40;99.90
18335;DHT22;9293;49.524;10.964;2022-11-18T11:02:34;8.40;99.90
18335;DHT22;9293;49.524;10.964;2022-11-18T11:05:18;8.40;99.90
18335;DHT22;9293;49.524;10.964;2022-11-18T11:08:01;8.50;99.90
18335;DHT22;9293;49.524;10.964;2022-11-18T11:10:57;8.50;99.90
18335;DHT22;9293;49.524;10.964;2022-11-18T11:13:27;8.50;99.90
18335;DHT22;9293;49.524;10.964;2022-11-18T11:16:02;8.50;99.90
18335;DHT22;9293;49.524;10.964;2022-11-18T11:18:35;8.50;99.90
18335;DHT22;9293;49.524;10.964;2022-11-18T11:21:15;8.50;99.90
18335;DHT22;9293;49.524;10.964;2022-11-18T11:23:44;8.40;99.90
18335;DHT22;9293;49.524;10.964;2022-11-18T11:29:57;8.50;99.90
18335;DHT22;9293;49.524;10.964;2022-11-18T11:41:43;8.80;99.90
18335;DHT22;9293;49.524;10.964;2022-11-18T11:44:27;8.80;99.90
18335;DHT22;9293;49.524;10.964;2022-11-18T11:50:18;8.80;99.90
18335;DHT22;9293;49.524;10.964;2022-11-18T12:04:33;8.80;99.90
18335;DHT22;9293;49.524;10.964;2022-11-18T12:07:07;8.80;99.90
18335;DHT22;9293;49.524;10.964;2022-11-18T12:12:32;8.90;99.90
18335;DHT22;9293;49.524;10.964;2022-11-18T12:15:17;8.90;99.90
18335;DHT22;9293;49.524;10.964;2022-11-18T12:20:47;8.90;99.90
18335;DHT22;9293;49.524;10.964;2022-11-18T12:23:25;9.00;99.90
18335;DHT22;9293;49.524;10.964;2022-11-18T12:26:07;9.00;99.90
18335;DHT22;9293;49.524;10.964;2022-11-18T12:28:41;9.00;99.90
18335;DHT22;9293;49.524;10.964;2022-11-18T12:34:02;9.10;99.90
18335;DHT22;9293;49.524;10.964;2022-11-18T12:36:38;9.10;99.90
18335;DHT22;9293;49.524;10.964;2022-11-18T12:41:58;8.90;99.90
18335;DHT22;9293;49.524;10.964;2022-11-18T12:44:50;9.00;99.90
18335;DHT22;9293;49.524;10.964;2022-11-18T12:50:17;8.90;99.90
18335;DHT22;9293;49.524;10.964;2022-11-18T12:53:06;8.80;99.90
18335;DHT22;9293;49.524;10.964;2022-11-18T12:55:36;8.80;99.90
18335;DHT22;9293;49.524;10.964;2022-11-18T12:58:23;8.80;99.90
18335;DHT22;9293;49.524;10.964;2022-11-18T13:01:10;8.90;99.90
18335;DHT22;9293;49.524;10.964;2022-11-18T13:03:41;8.90;99.90
18335;DHT22;9293;49.524;10.964;2022-11-18T13:06:23;8.90;99.90
18335;DHT22;9293;49.524;10.964;2022-11-18T13:09:01;8.90;99.90
18335;DHT22;9293;49.524;10.964;2022-11-18T13:11:38;8.90;99.90
18335;DHT22;9293;49.524;10.964;2022-11-18T13:14:28;8.90;99.90
18335;DHT22;9293;49.524;10.964;2022-11-18T13:17:29;8.90;99.90
18335;DHT22;9293;49.524;10.964;2022-11-18T13:20:24;8.90;99.90
18335;DHT22;9293;49.524;10.964;2022-11-18T13:26:05;8.70;99.90
18335;DHT22;9293;49.524;10.964;2022-11-18T13:29:06;8.70;99.90
18335;DHT22;9293;49.524;10.964;2022-11-18T13:31:48;8.70;99.90
18335;DHT22;9293;49.524;10.964;2022-11-18T13:34:24;8.80;99.90
18335;DHT22;9293;49.524;10.964;2022-11-18T13:37:01;8.80;99.90
18335;DHT22;9293;49.524;10.964;2022-11-18T13:39:31;8.80;99.90
18335;DHT22;9293;49.524;10.964;2022-11-18T13:42:02;8.80;99.90
18335;DHT22;9293;49.524;10.964;2022-11-18T13:44:35;8.90;99.90
18335;DHT22;9293;49.524;10.964;2022-11-18T13:50:15;8.90;99.90
18335;DHT22;9293;49.524;10.964;2022-11-18T13:52:42;8.90;99.90
18335;DHT22;9293;49.524;10.964;2022-11-18T13:55:21;8.90;99.90
18335;DHT22;9293;49.524;10.964;2022-11-18T13:58:05;8.90;99.90
18335;DHT22;9293;49.524;10.964;2022-11-18T14:00:34;8.90;99.90
18335;DHT22;9293;49.524;10.964;2022-11-18T14:05:55;9.00;99.90
18335;DHT22;9293;49.524;10.964;2022-11-18T14:08:42;9.00;99.90
18335;DHT22;9293;49.524;10.964;2022-11-18T14:11:11;9.00;99.90
18335;DHT22;9293;49.524;10.964;2022-11-18T14:13:48;9.00;99.90
18335;DHT22;9293;49.524;10.964;2022-11-18T14:18:49;9.00;99.90
18335;DHT22;9293;49.524;10.964;2022-11-18T14:21:29;8.90;99.90
18335;DHT22;9293;49.524;10.964;2022-11-18T14:24:00;8.90;99.90
18335;DHT22;9293;49.524;10.964;2022-11-18T14:26:37;8.90;99.90
18335;DHT22;9293;49.524;10.964;2022-11-18T14:29:19;8.90;99.90
18335;DHT22;9293;49.524;10.964;2022-11-18T14:32:12;8.90;99.90
18335;DHT22;9293;49.524;10.964;2022-11-18T14:34:41;8.90;99.90
18335;DHT22;9293;49.524;10.964;2022-11-18T14:37:13;8.90;99.90
18335;DHT22;9293;49.524;10.964;2022-11-18T14:39:53;8.90;99.90
18335;DHT22;9293;49.524;10.964;2022-11-18T14:42:23;9.00;99.90
18335;DHT22;9293;49.524;10.964;2022-11-18T14:44:51;8.90;99.90
18335;DHT22;9293;49.524;10.964;2022-11-18T14:47:27;8.90;99.90
18335;DHT22;9293;49.524;10.964;2022-11-18T14:49:59;8.90;99.90
18335;DHT22;9293;49.524;10.964;2022-11-18T14:52:27;8.90;99.90
18335;DHT22;9293;49.524;10.964;2022-11-18T14:54:55;8.80;99.90
18335;DHT22;9293;49.524;10.964;2022-11-18T14:57:23;8.80;99.90
18335;DHT22;9293;49.524;10.964;2022-11-18T14:59:51;8.80;99.90
18335;DHT22;9293;49.524;10.964;2022-11-18T15:02:19;8.70;99.90
18335;DHT22;9293;49.524;10.964;2022-11-18T15:04:47;8.70;99.90
18335;DHT22;9293;49.524;10.964;2022-11-18T15:07:17;8.70;99.90
18335;DHT22;9293;49.524;10.964;2022-11-18T15:09:49;8.70;99.90
18335;DHT22;9293;49.524;10.964;2022-11-18T15:12:17;8.70;99.90
18335;DHT22;9293;49.524;10.964;2022-11-18T15:14:46;8.70;99.90
18335;DHT22;9293;49.524;10.964;2022-11-18T15:17:14;8.60;99.90
18335;DHT22;9293;49.524;10.964;2022-11-18T15:19:42;8.60;99.90
18335;DHT22;9293;49.524;10.964;2022-11-18T15:22:10;8.60;99.90
18335;DHT22;9293;49.524;10.964;2022-11-18T15:24:38;8.60;99.90
18335;DHT22;9293;49.524;10.964;2022-11-18T15:27:08;8.60;99.90
18335;DHT22;9293;49.524;10.964;2022-11-18T15:29:36;8.60;99.90
18335;DHT22;9293;49.524;10.964;2022-11-18T15:32:04;8.70;99.90
18335;DHT22;9293;49.524;10.964;2022-11-18T15:34:33;8.70;99.90
18335;DHT22;9293;49.524;10.964;2022-11-18T15:37:01;8.60;99.90
18335;DHT22;9293;49.524;10.964;2022-11-18T15:39:29;8.60;99.90
18335;DHT22;9293;49.524;10.964;2022-11-18T15:41:57;8.60;99.90
18335;DHT22;9293;49.524;10.964;2022-11-18T15:44:25;8.60;99.90
18335;DHT22;9293;49.524;10.964;2022-11-18T15:46:56;8.60;99.90
18335;DHT22;9293;49.524;10.964;2022-11-18T15:49:28;8.60;99.90
18335;DHT22;9293;49.524;10.964;2022-11-18T15:51:56;8.60;99.90
18335;DHT22;9293;49.524;10.964;2022-11-18T15:54:25;8.60;99.90
18335;DHT22;9293;49.524;10.964;2022-11-18T15:56:53;8.60;99.90
18335;DHT22;9293;49.524;10.964;2022-11-18T15:59:21;8.60;99.90
18335;DHT22;9293;49.524;10.964;2022-11-18T16:01:49;8.60;99.90
18335;DHT22;9293;49.524;10.964;2022-11-18T16:04:20;8.60;99.90
18335;DHT22;9293;49.524;10.964;2022-11-18T16:06:48;8.60;99.90
18335;DHT22;9293;49.524;10.964;2022-11-18T16:09:16;8.50;99.90
18335;DHT22;9293;49.524;10.964;2022-11-18T16:11:45;8.50;99.90
18335;DHT22;9293;49.524;10.964;2022-11-18T16:14:34;8.50;99.90
18335;DHT22;9293;49.524;10.964;2022-11-18T16:17:02;8.50;99.90
18335;DHT22;9293;49.524;10.964;2022-11-18T16:19:30;8.60;99.90
18335;DHT22;9293;49.524;10.964;2022-11-18T16:22:00;8.60;99.90
18335;DHT22;9293;49.524;10.964;2022-11-18T16:24:28;8.50;99.90
18335;DHT22;9293;49.524;10.964;2022-11-18T16:26:56;8.50;99.90
18335;DHT22;9293;49.524;10.964;2022-11-18T16:29:24;8.50;99.90
18335;DHT22;9293;49.524;10.964;2022-11-18T16:31:53;8.50;99.90
18335;DHT22;9293;49.524;10.964;2022-11-18T16:34:26;8.60;99.90
18335;DHT22;9293;49.524;10.964;2022-11-18T16:36:56;8.60;99.90
18335;DHT22;9293;49.524;10.964;2022-11-18T16:39:27;8.60;99.90
18335;DHT22;9293;49.524;10.964;2022-11-18T16:41:57;8.60;99.90
18335;DHT22;9293;49.524;10.964;2022-11-18T16:44:34;8.50;99.90
18335;DHT22;9293;49.524;10.964;2022-11-18T16:47:03;8.50;99.90
18335;DHT22;9293;49.524;10.964;2022-11-18T16:49:40;8.50;99.90
18335;DHT22;9293;49.524;10.964;2022-11-18T16:52:08;8.50;99.90
18335;DHT22;9293;49.524;10.964;2022-11-18T16:54:37;8.50;99.90
18335;DHT22;9293;49.524;10.964;2022-11-18T16:57:11;8.60;99.90
18335;DHT22;9293;49.524;10.964;2022-11-18T16:59:46;8.60;99.90
18335;DHT22;9293;49.524;10.964;2022-11-18T17:02:14;8.60;99.90
18335;DHT22;9293;49.524;10.964;2022-11-18T17:04:42;8.60;99.90
18335;DHT22;9293;49.524;10.964;2022-11-18T17:07:11;8.60;99.90
18335;DHT22;9293;49.524;10.964;2022-11-18T17:09:39;8.60;99.90
18335;DHT22;9293;49.524;10.964;2022-11-18T17:12:07;8.60;99.90
18335;DHT22;9293;49.524;10.964;2022-11-18T17:14:35;8.50;99.90
18335;DHT22;9293;49.524;10.964;2022-11-18T17:17:05;8.50;99.90
18335;DHT22;9293;49.524;10.964;2022-11-18T17:19:33;8.50;99.90
18335;DHT22;9293;49.524;10.964;2022-11-18T17:22:01;8.50;99.90
18335;DHT22;9293;49.524;10.964;2022-11-18T17:24:29;8.50;99.90
18335;DHT22;9293;49.524;10.964;2022-11-18T17:26:57;8.50;99.90
18335;DHT22;9293;49.524;10.964;2022-11-18T17:29:25;8.50;99.90
18335;DHT22;9293;49.524;10.964;2022-11-18T17:31:53;8.40;99.90
18335;DHT22;9293;49.524;10.964;2022-11-18T17:34:22;8.50;99.90
18335;DHT22;9293;49.524;10.964;2022-11-18T17:36:49;8.50;99.90
18335;DHT22;9293;49.524;10.964;2022-11-18T17:39:17;8.50;99.90
18335;DHT22;9293;49.524;10.964;2022-11-18T17:41:47;8.50;99.90
18335;DHT22;9293;49.524;10.964;2022-11-18T17:44:33;8.50;99.90
18335;DHT22;9293;49.524;10.964;2022-11-18T17:47:01;8.50;99.90
18335;DHT22;9293;49.524;10.964;2022-11-18T17:49:29;8.50;99.90
18335;DHT22;9293;49.524;10.964;2022-11-18T17:51:57;8.50;99.90
18335;DHT22;9293;49.524;10.964;2022-11-18T17:54:25;8.50;99.90
18335;DHT22;9293;49.524;10.964;2022-11-18T17:56:53;8.50;99.90
18335;DHT22;9293;49.524;10.964;2022-11-18T17:59:24;8.50;99.90
18335;DHT22;9293;49.524;10.964;2022-11-18T18:01:54;8.50;99.90
18335;DHT22;9293;49.524;10.964;2022-11-18T18:04:25;8.50;99.90
18335;DHT22;9293;49.524;10.964;2022-11-18T18:06:54;8.40;99.90
18335;DHT22;9293;49.524;10.964;2022-11-18T18:09:22;8.40;99.90